FDB884 OEDF-OMDB
Flight info
| Callsign | FDB884 |
|---|---|
| Flight time | N/A |
| Altitude | 29000 |
| Route | ROTEL N572 DAVRI P559 VUTEB |
| Aircraft | B738/M-SDE2E3FGHIRWXY/LB1 |
Departure
| Time | 2026-05-07 18:07 |
|---|---|
| Airport | King Fahd International Airport (OEDF) |
Arrival
| Time | N/A |
|---|---|
| Airport | Dubai International Airport (OMDB) |
| Time | Latitude | Longitude | Altitude | Speed | Heading |
|---|---|---|---|---|---|
| 2026-05-07 17:34 | 26.46565 | 49.79568 | 84 ft | 0 kts | 86° |
| 2026-05-07 17:58 | 26.46564 | 49.79552 | 88 ft | 4 kts | 90° |
| 2026-05-07 17:58 | 26.46566 | 49.79522 | 88 ft | 4 kts | 103° |
| 2026-05-07 17:58 | 26.46576 | 49.79496 | 87 ft | 4 kts | 139° |
| 2026-05-07 17:58 | 26.46588 | 49.79488 | 89 ft | 0 kts | 175° |
| 2026-05-07 18:02 | 26.46558 | 49.79490 | 86 ft | 10 kts | 176° |
| 2026-05-07 18:03 | 26.46483 | 49.79480 | 84 ft | 12 kts | 222° |
| 2026-05-07 18:03 | 26.46445 | 49.79371 | 86 ft | 18 kts | 254° |
| 2026-05-07 18:03 | 26.46418 | 49.79270 | 85 ft | 11 kts | 252° |
| 2026-05-07 18:03 | 26.46350 | 49.79240 | 88 ft | 14 kts | 172° |
| 2026-05-07 18:04 | 26.46225 | 49.79277 | 84 ft | 23 kts | 165° |
| 2026-05-07 18:04 | 26.46048 | 49.79331 | 85 ft | 27 kts | 164° |
| 2026-05-07 18:04 | 26.45891 | 49.79380 | 87 ft | 23 kts | 165° |
| 2026-05-07 18:04 | 26.45744 | 49.79425 | 85 ft | 22 kts | 164° |
| 2026-05-07 18:05 | 26.45643 | 49.79446 | 84 ft | 12 kts | 203° |
| 2026-05-07 18:05 | 26.45598 | 49.79364 | 88 ft | 14 kts | 252° |
| 2026-05-07 18:05 | 26.45578 | 49.79285 | 84 ft | 2 kts | 255° |
| 2026-05-07 18:05 | 26.45575 | 49.79269 | 85 ft | 2 kts | 256° |
| 2026-05-07 18:06 | 26.45571 | 49.79250 | 87 ft | 3 kts | 257° |
| 2026-05-07 18:06 | 26.45566 | 49.79200 | 85 ft | 11 kts | 277° |
| 2026-05-07 18:06 | 26.45644 | 49.79132 | 85 ft | 27 kts | 342° |
| 2026-05-07 18:06 | 26.46055 | 49.79002 | 88 ft | 94 kts | 344° |
| 2026-05-07 18:07 | 26.46872 | 49.78751 | 92 ft | 146 kts | 344° |
| 2026-05-07 18:07 | 26.47866 | 49.78411 | 641 ft | 148 kts | 345° |
| 2026-05-07 18:07 | 26.48856 | 49.78072 | 1207 ft | 150 kts | 345° |
| 2026-05-07 18:07 | 26.49873 | 49.77769 | 1798 ft | 155 kts | 345° |
| 2026-05-07 18:08 | 26.51002 | 49.77432 | 2057 ft | 182 kts | 346° |
| 2026-05-07 18:08 | 26.52304 | 49.77041 | 2262 ft | 205 kts | 345° |
| 2026-05-07 18:08 | 26.53750 | 49.76603 | 2425 ft | 225 kts | 344° |
| 2026-05-07 18:08 | 26.55320 | 49.76125 | 2619 ft | 246 kts | 345° |
| 2026-05-07 18:09 | 26.57017 | 49.75612 | 3105 ft | 254 kts | 347° |
| 2026-05-07 18:09 | 26.58789 | 49.75551 | 3620 ft | 262 kts | 14° |
| 2026-05-07 18:09 | 26.60396 | 49.76494 | 4259 ft | 264 kts | 41° |
| 2026-05-07 18:09 | 26.61473 | 49.78157 | 4894 ft | 268 kts | 67° |
| 2026-05-07 18:10 | 26.61863 | 49.80212 | 5455 ft | 274 kts | 85° |
| 2026-05-07 18:10 | 26.61991 | 49.82370 | 6001 ft | 282 kts | 88° |
| 2026-05-07 18:10 | 26.62083 | 49.84556 | 6588 ft | 287 kts | 88° |
| 2026-05-07 18:10 | 26.62175 | 49.86807 | 7235 ft | 290 kts | 89° |
| 2026-05-07 18:11 | 26.62272 | 49.89075 | 7912 ft | 293 kts | 88° |
| 2026-05-07 18:11 | 26.62339 | 49.90586 | 8371 ft | 295 kts | 89° |
| 2026-05-07 18:11 | 26.62483 | 49.93653 | 9235 ft | 302 kts | 89° |
| 2026-05-07 18:11 | 26.62595 | 49.95996 | 10014 ft | 303 kts | 88° |
| 2026-05-07 18:12 | 26.62711 | 49.98380 | 10474 ft | 317 kts | 89° |
| 2026-05-07 18:12 | 26.62834 | 50.00936 | 10642 ft | 340 kts | 89° |
| 2026-05-07 18:12 | 26.62967 | 50.03645 | 10980 ft | 355 kts | 89° |
| 2026-05-07 18:12 | 26.63058 | 50.05476 | 11411 ft | 356 kts | 88° |
| 2026-05-07 18:13 | 26.63197 | 50.08243 | 12137 ft | 358 kts | 89° |
| 2026-05-07 18:13 | 26.63336 | 50.11040 | 12809 ft | 363 kts | 89° |
| 2026-05-07 18:13 | 26.63474 | 50.13873 | 13526 ft | 366 kts | 89° |
| 2026-05-07 18:13 | 26.63631 | 50.16721 | 14207 ft | 369 kts | 86° |
| 2026-05-07 18:14 | 26.64029 | 50.19575 | 14885 ft | 373 kts | 81° |
| 2026-05-07 18:14 | 26.64570 | 50.22441 | 15523 ft | 379 kts | 79° |
| 2026-05-07 18:14 | 26.65129 | 50.25310 | 16145 ft | 384 kts | 79° |
| 2026-05-07 18:14 | 26.65680 | 50.28250 | 16837 ft | 387 kts | 80° |
| 2026-05-07 18:15 | 26.66208 | 50.31210 | 17517 ft | 390 kts | 81° |
| 2026-05-07 18:15 | 26.66728 | 50.34213 | 18144 ft | 395 kts | 81° |
| 2026-05-07 18:15 | 26.67273 | 50.37245 | 18718 ft | 399 kts | 78° |
| 2026-05-07 18:15 | 26.68025 | 50.40246 | 19300 ft | 403 kts | 74° |
| 2026-05-07 18:16 | 26.68869 | 50.43248 | 19839 ft | 407 kts | 74° |
| 2026-05-07 18:16 | 26.69712 | 50.46301 | 20339 ft | 413 kts | 75° |
| 2026-05-07 18:16 | 26.70540 | 50.49388 | 20892 ft | 416 kts | 75° |
| 2026-05-07 18:16 | 26.71363 | 50.52502 | 21437 ft | 419 kts | 75° |
| 2026-05-07 18:17 | 26.72180 | 50.55614 | 21972 ft | 423 kts | 75° |
| 2026-05-07 18:17 | 26.73011 | 50.58788 | 22482 ft | 427 kts | 75° |
| 2026-05-07 18:17 | 26.73853 | 50.62004 | 22987 ft | 431 kts | 75° |
| 2026-05-07 18:17 | 26.74700 | 50.65236 | 23475 ft | 435 kts | 75° |
| 2026-05-07 18:18 | 26.75554 | 50.68498 | 23862 ft | 439 kts | 75° |
| 2026-05-07 18:18 | 26.76417 | 50.71797 | 24226 ft | 443 kts | 75° |
| 2026-05-07 18:18 | 26.77289 | 50.75130 | 24608 ft | 447 kts | 75° |
| 2026-05-07 18:18 | 26.78164 | 50.78480 | 24988 ft | 451 kts | 75° |
| 2026-05-07 18:19 | 26.79048 | 50.81864 | 25370 ft | 455 kts | 75° |
| 2026-05-07 18:19 | 26.79938 | 50.85278 | 25749 ft | 459 kts | 75° |
| 2026-05-07 18:19 | 26.80836 | 50.88727 | 26103 ft | 462 kts | 75° |
| 2026-05-07 18:19 | 26.81651 | 50.92182 | 26450 ft | 465 kts | 82° |
| 2026-05-07 18:20 | 26.81850 | 50.95799 | 26789 ft | 465 kts | 96° |
| 2026-05-07 18:20 | 26.81361 | 50.99374 | 27164 ft | 463 kts | 108° |
| 2026-05-07 18:20 | 26.80237 | 51.02736 | 27519 ft | 461 kts | 118° |
| 2026-05-07 18:20 | 26.78885 | 51.06012 | 27872 ft | 464 kts | 118° |
| 2026-05-07 18:21 | 26.77554 | 51.09322 | 28190 ft | 469 kts | 117° |
| 2026-05-07 18:21 | 26.76345 | 51.12729 | 28561 ft | 473 kts | 114° |
| 2026-05-07 18:21 | 26.75235 | 51.16205 | 28865 ft | 476 kts | 113° |
| 2026-05-07 18:22 | 26.73073 | 51.23223 | 28848 ft | 473 kts | 113° |
| 2026-05-07 18:22 | 26.70915 | 51.30074 | 28856 ft | 470 kts | 114° |
| 2026-05-07 18:23 | 26.68692 | 51.36978 | 28850 ft | 473 kts | 114° |
| 2026-05-07 18:23 | 26.66455 | 51.43914 | 28851 ft | 474 kts | 114° |
| 2026-05-07 18:24 | 26.64217 | 51.50872 | 28839 ft | 474 kts | 114° |
| 2026-05-07 18:24 | 26.62000 | 51.57775 | 28842 ft | 473 kts | 114° |
| 2026-05-07 18:25 | 26.59778 | 51.64678 | 28838 ft | 471 kts | 114° |
| 2026-05-07 18:25 | 26.57554 | 51.71565 | 28843 ft | 470 kts | 114° |
| 2026-05-07 18:26 | 26.55321 | 51.78432 | 28839 ft | 470 kts | 114° |
| 2026-05-07 18:26 | 26.53120 | 51.85273 | 28836 ft | 470 kts | 114° |
| 2026-05-07 18:27 | 26.50871 | 51.92151 | 28842 ft | 471 kts | 114° |
| 2026-05-07 18:27 | 26.48575 | 51.99006 | 28836 ft | 472 kts | 114° |
| 2026-05-07 18:28 | 26.46279 | 52.05872 | 28836 ft | 472 kts | 114° |
| 2026-05-07 18:28 | 26.43989 | 52.12734 | 28833 ft | 472 kts | 114° |
| 2026-05-07 18:29 | 26.41690 | 52.19594 | 28832 ft | 471 kts | 114° |
| 2026-05-07 18:29 | 26.39399 | 52.26411 | 28833 ft | 471 kts | 114° |
| 2026-05-07 18:30 | 26.37095 | 52.33264 | 28823 ft | 471 kts | 114° |
| 2026-05-07 18:30 | 26.34782 | 52.40082 | 28831 ft | 469 kts | 116° |
| 2026-05-07 18:31 | 26.32231 | 52.46767 | 28838 ft | 468 kts | 117° |
| 2026-05-07 18:31 | 26.29644 | 52.53369 | 28829 ft | 468 kts | 117° |
| 2026-05-07 18:32 | 26.27075 | 52.60038 | 28834 ft | 468 kts | 117° |
| 2026-05-07 18:32 | 26.24515 | 52.66718 | 28834 ft | 468 kts | 117° |
| 2026-05-07 18:33 | 26.21964 | 52.73363 | 28832 ft | 469 kts | 117° |
| 2026-05-07 18:33 | 26.19402 | 52.80044 | 28827 ft | 469 kts | 117° |
| 2026-05-07 18:34 | 26.16837 | 52.86724 | 28837 ft | 469 kts | 117° |
| 2026-05-07 18:34 | 26.14264 | 52.93413 | 28835 ft | 469 kts | 117° |
| 2026-05-07 18:35 | 26.11690 | 53.00095 | 28831 ft | 469 kts | 117° |
| 2026-05-07 18:35 | 26.09143 | 53.06757 | 28824 ft | 469 kts | 116° |
| 2026-05-07 18:36 | 26.06675 | 53.13506 | 28831 ft | 470 kts | 115° |
| 2026-05-07 18:36 | 26.04220 | 53.20249 | 28833 ft | 470 kts | 115° |
| 2026-05-07 18:37 | 26.01770 | 53.26925 | 28829 ft | 470 kts | 116° |
| 2026-05-07 18:37 | 25.99291 | 53.33652 | 28837 ft | 470 kts | 116° |
| 2026-05-07 18:38 | 25.96808 | 53.40378 | 28827 ft | 470 kts | 116° |
| 2026-05-07 18:38 | 25.94335 | 53.47071 | 28828 ft | 470 kts | 116° |
| 2026-05-07 18:39 | 25.91899 | 53.53829 | 28830 ft | 471 kts | 114° |
| 2026-05-07 18:39 | 25.89588 | 53.60642 | 28824 ft | 471 kts | 114° |
| 2026-05-07 18:40 | 25.87284 | 53.67396 | 28546 ft | 462 kts | 114° |
| 2026-05-07 18:40 | 25.86144 | 53.70703 | 28201 ft | 453 kts | 114° |
| 2026-05-07 18:40 | 25.85016 | 53.73957 | 27713 ft | 450 kts | 114° |
| 2026-05-07 18:40 | 25.83890 | 53.77187 | 27258 ft | 446 kts | 114° |
| 2026-05-07 18:41 | 25.82772 | 53.80388 | 26790 ft | 442 kts | 114° |
| 2026-05-07 18:41 | 25.81679 | 53.83516 | 26336 ft | 438 kts | 114° |
| 2026-05-07 18:41 | 25.80579 | 53.86663 | 25879 ft | 435 kts | 114° |
| 2026-05-07 18:41 | 25.79488 | 53.89786 | 25406 ft | 432 kts | 113° |
| 2026-05-07 18:42 | 25.78403 | 53.92888 | 24936 ft | 429 kts | 113° |
| 2026-05-07 18:42 | 25.77328 | 53.95963 | 24463 ft | 426 kts | 113° |
| 2026-05-07 18:42 | 25.76265 | 53.99000 | 24001 ft | 424 kts | 113° |
| 2026-05-07 18:42 | 25.75205 | 54.02045 | 23535 ft | 421 kts | 112° |
| 2026-05-07 18:43 | 25.74227 | 54.05105 | 23007 ft | 419 kts | 111° |
| 2026-05-07 18:43 | 25.73304 | 54.08157 | 22512 ft | 415 kts | 111° |
| 2026-05-07 18:43 | 25.72398 | 54.11182 | 22042 ft | 410 kts | 110° |
| 2026-05-07 18:43 | 25.71509 | 54.14129 | 21593 ft | 406 kts | 110° |
| 2026-05-07 18:44 | 25.70610 | 54.17076 | 21146 ft | 401 kts | 110° |
| 2026-05-07 18:44 | 25.69714 | 54.19988 | 20697 ft | 397 kts | 110° |
| 2026-05-07 18:44 | 25.68821 | 54.22873 | 20261 ft | 393 kts | 110° |
| 2026-05-07 18:44 | 25.67939 | 54.25723 | 19834 ft | 389 kts | 110° |
| 2026-05-07 18:45 | 25.67066 | 54.28546 | 19406 ft | 385 kts | 111° |
| 2026-05-07 18:45 | 25.66197 | 54.31353 | 18977 ft | 382 kts | 110° |
| 2026-05-07 18:45 | 25.65337 | 54.34124 | 18552 ft | 379 kts | 110° |
| 2026-05-07 18:45 | 25.64491 | 54.36876 | 18133 ft | 376 kts | 110° |
| 2026-05-07 18:46 | 25.63656 | 54.39607 | 17654 ft | 372 kts | 110° |
| 2026-05-07 18:46 | 25.62829 | 54.42318 | 17208 ft | 369 kts | 110° |
| 2026-05-07 18:46 | 25.62007 | 54.45002 | 16766 ft | 364 kts | 110° |
| 2026-05-07 18:46 | 25.61218 | 54.47580 | 16345 ft | 352 kts | 110° |
| 2026-05-07 18:47 | 25.60437 | 54.50123 | 15922 ft | 347 kts | 109° |
| 2026-05-07 18:47 | 25.59661 | 54.52645 | 15550 ft | 345 kts | 109° |
| 2026-05-07 18:47 | 25.58890 | 54.55152 | 15168 ft | 343 kts | 109° |
| 2026-05-07 18:47 | 25.58228 | 54.57680 | 14774 ft | 342 kts | 101° |
| 2026-05-07 18:48 | 25.58024 | 54.60296 | 14394 ft | 341 kts | 89° |
| 2026-05-07 18:48 | 25.58258 | 54.62905 | 14074 ft | 338 kts | 82° |
| 2026-05-07 18:48 | 25.58599 | 54.65470 | 13739 ft | 335 kts | 82° |
| 2026-05-07 18:48 | 25.58948 | 54.68028 | 13359 ft | 334 kts | 82° |
| 2026-05-07 18:49 | 25.59288 | 54.70561 | 12954 ft | 333 kts | 82° |
| 2026-05-07 18:49 | 25.59616 | 54.73076 | 12741 ft | 325 kts | 82° |
| 2026-05-07 18:49 | 25.59931 | 54.75523 | 12595 ft | 317 kts | 82° |
| 2026-05-07 18:49 | 25.60234 | 54.77917 | 12455 ft | 308 kts | 82° |
| 2026-05-07 18:50 | 25.60527 | 54.80239 | 12320 ft | 300 kts | 83° |
| 2026-05-07 18:50 | 25.60808 | 54.82473 | 12197 ft | 293 kts | 82° |
| 2026-05-07 18:50 | 25.61085 | 54.84681 | 12073 ft | 285 kts | 83° |
| 2026-05-07 18:50 | 25.61079 | 54.86830 | 11930 ft | 277 kts | 105° |
| 2026-05-07 18:51 | 25.60413 | 54.88805 | 11861 ft | 273 kts | 113° |
| 2026-05-07 18:51 | 25.59646 | 54.90729 | 11750 ft | 273 kts | 114° |
| 2026-05-07 18:51 | 25.58864 | 54.92664 | 11644 ft | 277 kts | 114° |
| 2026-05-07 18:51 | 25.58078 | 54.94626 | 11530 ft | 280 kts | 114° |
| 2026-05-07 18:52 | 25.57292 | 54.96602 | 11415 ft | 280 kts | 114° |
| 2026-05-07 18:52 | 25.56511 | 54.98579 | 11291 ft | 279 kts | 114° |
| 2026-05-07 18:52 | 25.55733 | 55.00552 | 11177 ft | 279 kts | 114° |
| 2026-05-07 18:52 | 25.54967 | 55.02493 | 11060 ft | 278 kts | 113° |
| 2026-05-07 18:53 | 25.54138 | 55.04434 | 10922 ft | 279 kts | 118° |
| 2026-05-07 18:53 | 25.53177 | 55.06304 | 10763 ft | 280 kts | 120° |
| 2026-05-07 18:53 | 25.52187 | 55.08164 | 10609 ft | 281 kts | 120° |
| 2026-05-07 18:53 | 25.51192 | 55.10037 | 10453 ft | 282 kts | 120° |
| 2026-05-07 18:54 | 25.50202 | 55.11917 | 10291 ft | 283 kts | 119° |
| 2026-05-07 18:54 | 25.49218 | 55.13802 | 10138 ft | 281 kts | 119° |
| 2026-05-07 18:54 | 25.48247 | 55.15668 | 9973 ft | 278 kts | 119° |
| 2026-05-07 18:54 | 25.47292 | 55.17505 | 9807 ft | 274 kts | 119° |
| 2026-05-07 18:55 | 25.46342 | 55.19330 | 9650 ft | 273 kts | 120° |
| 2026-05-07 18:55 | 25.45270 | 55.21032 | 9497 ft | 274 kts | 130° |
| 2026-05-07 18:55 | 25.43991 | 55.22589 | 9333 ft | 273 kts | 133° |
| 2026-05-07 18:55 | 25.42687 | 55.24119 | 9185 ft | 273 kts | 133° |
| 2026-05-07 18:56 | 25.41385 | 55.25662 | 9018 ft | 274 kts | 132° |
| 2026-05-07 18:56 | 25.40096 | 55.27217 | 8872 ft | 273 kts | 132° |
| 2026-05-07 18:56 | 25.38824 | 55.28767 | 8698 ft | 268 kts | 132° |
| 2026-05-07 18:56 | 25.37598 | 55.30268 | 8552 ft | 263 kts | 132° |
| 2026-05-07 18:57 | 25.36386 | 55.31753 | 8421 ft | 258 kts | 132° |
| 2026-05-07 18:57 | 25.35237 | 55.33250 | 8261 ft | 252 kts | 124° |
| 2026-05-07 18:57 | 25.34308 | 55.34869 | 8132 ft | 247 kts | 120° |
| 2026-05-07 18:57 | 25.33439 | 55.36493 | 8000 ft | 245 kts | 120° |
| 2026-05-07 18:58 | 25.32570 | 55.38114 | 7876 ft | 245 kts | 121° |
| 2026-05-07 18:58 | 25.31988 | 55.39190 | 7790 ft | 247 kts | 121° |
| 2026-05-07 18:58 | 25.31095 | 55.40825 | 7655 ft | 249 kts | 121° |
| 2026-05-07 18:58 | 25.29900 | 55.42989 | 7465 ft | 248 kts | 121° |
| 2026-05-07 18:59 | 25.28995 | 55.44617 | 7325 ft | 248 kts | 121° |
| 2026-05-07 18:59 | 25.28087 | 55.46247 | 7186 ft | 248 kts | 121° |
| 2026-05-07 18:59 | 25.27485 | 55.47328 | 7084 ft | 248 kts | 122° |
| 2026-05-07 18:59 | 25.26575 | 55.48961 | 6875 ft | 252 kts | 122° |
| 2026-05-07 19:00 | 25.25653 | 55.50619 | 6636 ft | 253 kts | 122° |
| 2026-05-07 19:00 | 25.24733 | 55.52273 | 6390 ft | 253 kts | 122° |
| 2026-05-07 19:00 | 25.23809 | 55.53934 | 6145 ft | 253 kts | 122° |
| 2026-05-07 19:00 | 25.22892 | 55.55585 | 5902 ft | 250 kts | 122° |
| 2026-05-07 19:01 | 25.21988 | 55.57208 | 5620 ft | 245 kts | 122° |